sensor_id;sensor_type;location;lat;lon;timestamp;P1;durP1;ratioP1;P2;durP2;ratioP2
39554;SDS011;25231;48.746;9.234;2023-02-28T00:00:18;6.07;;;5.57;;
39554;SDS011;25231;48.746;9.234;2023-02-28T00:02:44;5.73;;;5.23;;
39554;SDS011;25231;48.746;9.234;2023-02-28T00:05:11;6.83;;;5.23;;
39554;SDS011;25231;48.746;9.234;2023-02-28T00:07:38;6.40;;;5.90;;
39554;SDS011;25231;48.746;9.234;2023-02-28T00:10:04;6.60;;;6.10;;
39554;SDS011;25231;48.746;9.234;2023-02-28T00:12:32;6.33;;;5.90;;
39554;SDS011;25231;48.746;9.234;2023-02-28T00:14:58;6.13;;;5.63;;
39554;SDS011;25231;48.746;9.234;2023-02-28T00:17:24;6.53;;;5.87;;
39554;SDS011;25231;48.746;9.234;2023-02-28T00:19:50;6.40;;;5.90;;
39554;SDS011;25231;48.746;9.234;2023-02-28T00:22:16;6.87;;;6.37;;
39554;SDS011;25231;48.746;9.234;2023-02-28T00:24:43;6.73;;;6.27;;
39554;SDS011;25231;48.746;9.234;2023-02-28T00:27:08;6.93;;;6.33;;
39554;SDS011;25231;48.746;9.234;2023-02-28T00:29:34;6.67;;;6.03;;
39554;SDS011;25231;48.746;9.234;2023-02-28T00:31:59;5.93;;;5.53;;
39554;SDS011;25231;48.746;9.234;2023-02-28T00:34:25;6.20;;;5.63;;
39554;SDS011;25231;48.746;9.234;2023-02-28T00:36:50;6.13;;;5.67;;
39554;SDS011;25231;48.746;9.234;2023-02-28T00:39:16;10.50;;;9.63;;
39554;SDS011;25231;48.746;9.234;2023-02-28T00:41:41;6.43;;;5.93;;
39554;SDS011;25231;48.746;9.234;2023-02-28T00:44:07;6.20;;;5.70;;
39554;SDS011;25231;48.746;9.234;2023-02-28T00:46:32;6.10;;;5.50;;
39554;SDS011;25231;48.746;9.234;2023-02-28T00:48:57;7.17;;;6.17;;
39554;SDS011;25231;48.746;9.234;2023-02-28T00:51:23;6.90;;;6.40;;
39554;SDS011;25231;48.746;9.234;2023-02-28T00:53:48;6.00;;;5.50;;
39554;SDS011;25231;48.746;9.234;2023-02-28T00:56:14;7.23;;;6.17;;
39554;SDS011;25231;48.746;9.234;2023-02-28T00:58:39;6.10;;;5.57;;
39554;SDS011;25231;48.746;9.234;2023-02-28T01:01:05;7.13;;;6.53;;
39554;SDS011;25231;48.746;9.234;2023-02-28T01:03:30;8.90;;;6.53;;
39554;SDS011;25231;48.746;9.234;2023-02-28T01:05:56;7.67;;;7.00;;
39554;SDS011;25231;48.746;9.234;2023-02-28T01:08:21;7.57;;;6.70;;
39554;SDS011;25231;48.746;9.234;2023-02-28T01:10:47;7.13;;;6.50;;
39554;SDS011;25231;48.746;9.234;2023-02-28T01:13:13;7.07;;;6.47;;
39554;SDS011;25231;48.746;9.234;2023-02-28T01:15:40;8.00;;;6.90;;
39554;SDS011;25231;48.746;9.234;2023-02-28T01:18:08;7.50;;;6.90;;
39554;SDS011;25231;48.746;9.234;2023-02-28T01:20:35;8.13;;;7.33;;
39554;SDS011;25231;48.746;9.234;2023-02-28T01:23:02;9.00;;;8.30;;
39554;SDS011;25231;48.746;9.234;2023-02-28T01:25:27;8.87;;;8.20;;
39554;SDS011;25231;48.746;9.234;2023-02-28T01:27:52;7.40;;;6.80;;
39554;SDS011;25231;48.746;9.234;2023-02-28T01:30:18;7.57;;;6.97;;
39554;SDS011;25231;48.746;9.234;2023-02-28T01:32:43;7.03;;;6.53;;
39554;SDS011;25231;48.746;9.234;2023-02-28T01:35:09;6.70;;;6.20;;
39554;SDS011;25231;48.746;9.234;2023-02-28T01:37:34;7.93;;;7.20;;
39554;SDS011;25231;48.746;9.234;2023-02-28T01:39:59;6.50;;;5.90;;
39554;SDS011;25231;48.746;9.234;2023-02-28T01:42:25;7.17;;;6.53;;
39554;SDS011;25231;48.746;9.234;2023-02-28T01:44:55;7.00;;;6.40;;
39554;SDS011;25231;48.746;9.234;2023-02-28T01:47:24;7.77;;;6.50;;
39554;SDS011;25231;48.746;9.234;2023-02-28T01:49:54;6.30;;;5.80;;
39554;SDS011;25231;48.746;9.234;2023-02-28T01:52:19;6.67;;;6.07;;
39554;SDS011;25231;48.746;9.234;2023-02-28T01:54:46;6.50;;;6.00;;
39554;SDS011;25231;48.746;9.234;2023-02-28T01:57:17;7.07;;;6.47;;
39554;SDS011;25231;48.746;9.234;2023-02-28T01:59:47;6.83;;;6.23;;
39554;SDS011;25231;48.746;9.234;2023-02-28T02:02:17;7.10;;;6.50;;
39554;SDS011;25231;48.746;9.234;2023-02-28T02:04:54;7.40;;;6.27;;
39554;SDS011;25231;48.746;9.234;2023-02-28T02:07:33;6.93;;;6.03;;
39554;SDS011;25231;48.746;9.234;2023-02-28T02:10:24;6.60;;;6.00;;
39554;SDS011;25231;48.746;9.234;2023-02-28T02:15:25;7.13;;;6.50;;
39554;SDS011;25231;48.746;9.234;2023-02-28T02:18:09;6.73;;;6.13;;
39554;SDS011;25231;48.746;9.234;2023-02-28T02:32:05;7.67;;;7.07;;
39554;SDS011;25231;48.746;9.234;2023-02-28T02:34:58;7.43;;;6.83;;
39554;SDS011;25231;48.746;9.234;2023-02-28T02:37:38;7.50;;;6.90;;
39554;SDS011;25231;48.746;9.234;2023-02-28T02:40:10;7.63;;;6.97;;
39554;SDS011;25231;48.746;9.234;2023-02-28T02:42:47;7.73;;;7.13;;
39554;SDS011;25231;48.746;9.234;2023-02-28T02:45:32;7.13;;;6.53;;
39554;SDS011;25231;48.746;9.234;2023-02-28T02:48:03;7.97;;;7.23;;
39554;SDS011;25231;48.746;9.234;2023-02-28T02:50:36;7.60;;;7.00;;
39554;SDS011;25231;48.746;9.234;2023-02-28T02:53:05;7.67;;;7.07;;
39554;SDS011;25231;48.746;9.234;2023-02-28T02:55:33;10.20;;;7.87;;
39554;SDS011;25231;48.746;9.234;2023-02-28T02:58:03;8.00;;;7.20;;
39554;SDS011;25231;48.746;9.234;2023-02-28T03:00:34;7.93;;;7.13;;
39554;SDS011;25231;48.746;9.234;2023-02-28T03:03:04;8.20;;;7.40;;
39554;SDS011;25231;48.746;9.234;2023-02-28T03:05:53;7.70;;;7.00;;
39554;SDS011;25231;48.746;9.234;2023-02-28T03:08:17;8.40;;;7.70;;
39554;SDS011;25231;48.746;9.234;2023-02-28T03:10:43;10.13;;;7.60;;
39554;SDS011;25231;48.746;9.234;2023-02-28T03:25:02;7.23;;;6.63;;
39554;SDS011;25231;48.746;9.234;2023-02-28T03:32:57;9.33;;;8.43;;
39554;SDS011;25231;48.746;9.234;2023-02-28T03:35:31;8.23;;;7.63;;
39554;SDS011;25231;48.746;9.234;2023-02-28T03:38:00;9.07;;;7.47;;
39554;SDS011;25231;48.746;9.234;2023-02-28T03:40:33;9.80;;;7.63;;
39554;SDS011;25231;48.746;9.234;2023-02-28T03:43:03;10.17;;;9.23;;
39554;SDS011;25231;48.746;9.234;2023-02-28T03:45:35;9.13;;;8.30;;
39554;SDS011;25231;48.746;9.234;2023-02-28T03:48:07;9.00;;;8.20;;
39554;SDS011;25231;48.746;9.234;2023-02-28T03:50:44;8.13;;;7.43;;
39554;SDS011;25231;48.746;9.234;2023-02-28T03:55:39;9.20;;;7.77;;
39554;SDS011;25231;48.746;9.234;2023-02-28T03:58:19;8.83;;;7.80;;
39554;SDS011;25231;48.746;9.234;2023-02-28T04:00:51;8.47;;;7.57;;
39554;SDS011;25231;48.746;9.234;2023-02-28T04:03:22;8.57;;;7.80;;
39554;SDS011;25231;48.746;9.234;2023-02-28T04:05:55;8.23;;;7.53;;
39554;SDS011;25231;48.746;9.234;2023-02-28T04:08:22;10.83;;;7.47;;
39554;SDS011;25231;48.746;9.234;2023-02-28T04:10:57;8.73;;;8.00;;
39554;SDS011;25231;48.746;9.234;2023-02-28T04:13:33;9.17;;;7.67;;
39554;SDS011;25231;48.746;9.234;2023-02-28T04:15:59;7.80;;;7.10;;
39554;SDS011;25231;48.746;9.234;2023-02-28T04:18:24;9.63;;;8.30;;
39554;SDS011;25231;48.746;9.234;2023-02-28T04:20:49;8.03;;;7.27;;
39554;SDS011;25231;48.746;9.234;2023-02-28T04:23:15;8.30;;;7.50;;
39554;SDS011;25231;48.746;9.234;2023-02-28T04:25:40;8.57;;;7.77;;
39554;SDS011;25231;48.746;9.234;2023-02-28T04:28:06;10.07;;;7.57;;
39554;SDS011;25231;48.746;9.234;2023-02-28T04:30:31;8.17;;;7.37;;
39554;SDS011;25231;48.746;9.234;2023-02-28T04:32:57;12.50;;;7.43;;
39554;SDS011;25231;48.746;9.234;2023-02-28T04:35:23;10.50;;;8.30;;
39554;SDS011;25231;48.746;9.234;2023-02-28T04:37:48;8.13;;;7.27;;
39554;SDS011;25231;48.746;9.234;2023-02-28T04:40:14;8.13;;;7.43;;
39554;SDS011;25231;48.746;9.234;2023-02-28T04:42:39;10.67;;;8.10;;
39554;SDS011;25231;48.746;9.234;2023-02-28T04:45:04;10.03;;;7.97;;
39554;SDS011;25231;48.746;9.234;2023-02-28T04:47:30;7.77;;;6.97;;
39554;SDS011;25231;48.746;9.234;2023-02-28T04:49:56;8.70;;;7.57;;
39554;SDS011;25231;48.746;9.234;2023-02-28T04:52:21;9.13;;;8.30;;
39554;SDS011;25231;48.746;9.234;2023-02-28T04:54:46;8.87;;;8.10;;
39554;SDS011;25231;48.746;9.234;2023-02-28T04:57:12;10.50;;;8.10;;
39554;SDS011;25231;48.746;9.234;2023-02-28T04:59:37;9.97;;;8.97;;
39554;SDS011;25231;48.746;9.234;2023-02-28T05:02:03;9.90;;;8.87;;
39554;SDS011;25231;48.746;9.234;2023-02-28T05:04:32;10.37;;;9.40;;
39554;SDS011;25231;48.746;9.234;2023-02-28T05:07:01;10.70;;;9.80;;
39554;SDS011;25231;48.746;9.234;2023-02-28T05:09:26;10.33;;;8.73;;
39554;SDS011;25231;48.746;9.234;2023-02-28T05:11:53;11.13;;;10.13;;
39554;SDS011;25231;48.746;9.234;2023-02-28T05:14:18;12.43;;;11.23;;
39554;SDS011;25231;48.746;9.234;2023-02-28T05:16:43;11.83;;;10.90;;
39554;SDS011;25231;48.746;9.234;2023-02-28T05:19:09;12.73;;;11.63;;
39554;SDS011;25231;48.746;9.234;2023-02-28T05:21:41;12.87;;;11.67;;
39554;SDS011;25231;48.746;9.234;2023-02-28T05:24:15;12.27;;;11.27;;
39554;SDS011;25231;48.746;9.234;2023-02-28T05:26:47;12.47;;;11.47;;
39554;SDS011;25231;48.746;9.234;2023-02-28T05:29:13;12.70;;;11.53;;
39554;SDS011;25231;48.746;9.234;2023-02-28T05:31:38;11.70;;;10.70;;
39554;SDS011;25231;48.746;9.234;2023-02-28T05:34:04;11.23;;;10.33;;
39554;SDS011;25231;48.746;9.234;2023-02-28T05:36:29;10.60;;;9.60;;
39554;SDS011;25231;48.746;9.234;2023-02-28T05:38:55;13.73;;;9.63;;
39554;SDS011;25231;48.746;9.234;2023-02-28T05:41:20;12.87;;;11.77;;
39554;SDS011;25231;48.746;9.234;2023-02-28T05:43:46;9.73;;;8.90;;
39554;SDS011;25231;48.746;9.234;2023-02-28T05:46:12;8.73;;;7.90;;
39554;SDS011;25231;48.746;9.234;2023-02-28T05:48:38;9.67;;;8.70;;
39554;SDS011;25231;48.746;9.234;2023-02-28T05:51:05;9.47;;;8.57;;
39554;SDS011;25231;48.746;9.234;2023-02-28T05:53:31;8.63;;;7.80;;
39554;SDS011;25231;48.746;9.234;2023-02-28T05:55:57;11.90;;;9.83;;
39554;SDS011;25231;48.746;9.234;2023-02-28T05:58:23;10.03;;;9.10;;
39554;SDS011;25231;48.746;9.234;2023-02-28T06:00:50;11.60;;;9.63;;
39554;SDS011;25231;48.746;9.234;2023-02-28T06:03:15;11.53;;;9.40;;
39554;SDS011;25231;48.746;9.234;2023-02-28T06:05:41;10.23;;;9.13;;
39554;SDS011;25231;48.746;9.234;2023-02-28T06:08:06;9.63;;;8.70;;
39554;SDS011;25231;48.746;9.234;2023-02-28T06:10:32;13.27;;;9.47;;
39554;SDS011;25231;48.746;9.234;2023-02-28T06:13:05;11.43;;;9.13;;
39554;SDS011;25231;48.746;9.234;2023-02-28T06:15:30;11.87;;;10.33;;
39554;SDS011;25231;48.746;9.234;2023-02-28T06:17:58;10.07;;;9.17;;
39554;SDS011;25231;48.746;9.234;2023-02-28T06:20:24;10.60;;;9.70;;
39554;SDS011;25231;48.746;9.234;2023-02-28T06:22:53;16.80;;;10.57;;
39554;SDS011;25231;48.746;9.234;2023-02-28T06:25:20;9.93;;;8.77;;
39554;SDS011;25231;48.746;9.234;2023-02-28T06:27:46;13.00;;;11.80;;
39554;SDS011;25231;48.746;9.234;2023-02-28T06:30:13;10.20;;;9.10;;
39554;SDS011;25231;48.746;9.234;2023-02-28T06:32:38;13.37;;;10.57;;
39554;SDS011;25231;48.746;9.234;2023-02-28T06:35:04;16.33;;;10.83;;
39554;SDS011;25231;48.746;9.234;2023-02-28T06:37:30;15.40;;;11.97;;
39554;SDS011;25231;48.746;9.234;2023-02-28T06:39:57;13.63;;;12.53;;
39554;SDS011;25231;48.746;9.234;2023-02-28T06:42:23;13.60;;;10.80;;
39554;SDS011;25231;48.746;9.234;2023-02-28T06:44:55;14.07;;;11.10;;
39554;SDS011;25231;48.746;9.234;2023-02-28T06:47:21;11.90;;;10.07;;
39554;SDS011;25231;48.746;9.234;2023-02-28T06:49:47;10.33;;;9.33;;
39554;SDS011;25231;48.746;9.234;2023-02-28T06:52:12;11.37;;;10.23;;
39554;SDS011;25231;48.746;9.234;2023-02-28T06:54:39;11.37;;;9.67;;
39554;SDS011;25231;48.746;9.234;2023-02-28T06:57:04;12.67;;;10.60;;
39554;SDS011;25231;48.746;9.234;2023-02-28T06:59:30;11.37;;;10.10;;
39554;SDS011;25231;48.746;9.234;2023-02-28T07:01:55;12.53;;;9.80;;
39554;SDS011;25231;48.746;9.234;2023-02-28T07:04:21;14.47;;;10.50;;
39554;SDS011;25231;48.746;9.234;2023-02-28T07:06:47;12.77;;;10.37;;
39554;SDS011;25231;48.746;9.234;2023-02-28T07:09:12;13.77;;;11.53;;
39554;SDS011;25231;48.746;9.234;2023-02-28T07:11:39;14.80;;;11.17;;
39554;SDS011;25231;48.746;9.234;2023-02-28T07:14:04;13.27;;;11.17;;
39554;SDS011;25231;48.746;9.234;2023-02-28T07:16:29;14.70;;;13.07;;
39554;SDS011;25231;48.746;9.234;2023-02-28T07:18:55;15.80;;;14.27;;
39554;SDS011;25231;48.746;9.234;2023-02-28T07:21:20;15.50;;;13.90;;
39554;SDS011;25231;48.746;9.234;2023-02-28T07:23:46;14.77;;;11.90;;
39554;SDS011;25231;48.746;9.234;2023-02-28T07:26:13;12.03;;;10.77;;
39554;SDS011;25231;48.746;9.234;2023-02-28T07:28:42;12.10;;;10.30;;
39554;SDS011;25231;48.746;9.234;2023-02-28T07:31:08;11.30;;;10.10;;
39554;SDS011;25231;48.746;9.234;2023-02-28T07:33:35;14.37;;;10.60;;
39554;SDS011;25231;48.746;9.234;2023-02-28T07:36:05;14.07;;;12.77;;
39554;SDS011;25231;48.746;9.234;2023-02-28T07:38:36;13.20;;;11.27;;
39554;SDS011;25231;48.746;9.234;2023-02-28T07:41:02;14.47;;;12.23;;
39554;SDS011;25231;48.746;9.234;2023-02-28T07:43:31;12.40;;;11.00;;
39554;SDS011;25231;48.746;9.234;2023-02-28T07:46:04;12.50;;;11.20;;
39554;SDS011;25231;48.746;9.234;2023-02-28T07:48:31;13.70;;;11.73;;
39554;SDS011;25231;48.746;9.234;2023-02-28T07:50:56;12.63;;;11.00;;
39554;SDS011;25231;48.746;9.234;2023-02-28T07:53:23;13.67;;;11.43;;
39554;SDS011;25231;48.746;9.234;2023-02-28T07:55:48;12.47;;;11.17;;
39554;SDS011;25231;48.746;9.234;2023-02-28T07:58:14;13.23;;;11.93;;
39554;SDS011;25231;48.746;9.234;2023-02-28T08:00:39;14.20;;;12.70;;
39554;SDS011;25231;48.746;9.234;2023-02-28T08:03:05;14.30;;;12.80;;
39554;SDS011;25231;48.746;9.234;2023-02-28T08:05:30;18.53;;;13.47;;
39554;SDS011;25231;48.746;9.234;2023-02-28T08:07:55;15.30;;;12.60;;
39554;SDS011;25231;48.746;9.234;2023-02-28T08:10:21;13.97;;;12.57;;
39554;SDS011;25231;48.746;9.234;2023-02-28T08:12:46;14.33;;;12.33;;
39554;SDS011;25231;48.746;9.234;2023-02-28T08:15:12;14.20;;;12.70;;
39554;SDS011;25231;48.746;9.234;2023-02-28T08:17:37;14.23;;;11.80;;
39554;SDS011;25231;48.746;9.234;2023-02-28T08:20:02;14.33;;;11.37;;
39554;SDS011;25231;48.746;9.234;2023-02-28T08:22:29;14.13;;;12.73;;
39554;SDS011;25231;48.746;9.234;2023-02-28T08:24:54;14.97;;;11.83;;
39554;SDS011;25231;48.746;9.234;2023-02-28T08:27:20;15.73;;;12.20;;
39554;SDS011;25231;48.746;9.234;2023-02-28T08:29:45;14.10;;;12.77;;
39554;SDS011;25231;48.746;9.234;2023-02-28T08:32:10;15.70;;;12.00;;
39554;SDS011;25231;48.746;9.234;2023-02-28T08:34:36;14.30;;;12.90;;
39554;SDS011;25231;48.746;9.234;2023-02-28T08:37:04;14.57;;;12.77;;
39554;SDS011;25231;48.746;9.234;2023-02-28T08:39:29;15.67;;;14.07;;
39554;SDS011;25231;48.746;9.234;2023-02-28T08:41:54;18.70;;;14.43;;
39554;SDS011;25231;48.746;9.234;2023-02-28T08:44:20;20.50;;;13.23;;
39554;SDS011;25231;48.746;9.234;2023-02-28T08:46:45;13.60;;;12.23;;
39554;SDS011;25231;48.746;9.234;2023-02-28T08:49:10;15.03;;;11.80;;
39554;SDS011;25231;48.746;9.234;2023-02-28T08:51:36;14.13;;;12.73;;
39554;SDS011;25231;48.746;9.234;2023-02-28T08:54:03;13.40;;;12.00;;
39554;SDS011;25231;48.746;9.234;2023-02-28T08:56:29;13.07;;;11.67;;
39554;SDS011;25231;48.746;9.234;2023-02-28T08:58:55;13.03;;;11.63;;
39554;SDS011;25231;48.746;9.234;2023-02-28T09:01:22;13.33;;;11.90;;
39554;SDS011;25231;48.746;9.234;2023-02-28T09:03:52;14.67;;;12.17;;
39554;SDS011;25231;48.746;9.234;2023-02-28T09:06:20;12.97;;;11.17;;
39554;SDS011;25231;48.746;9.234;2023-02-28T09:08:47;15.17;;;11.37;;
39554;SDS011;25231;48.746;9.234;2023-02-28T09:11:13;16.30;;;12.90;;
39554;SDS011;25231;48.746;9.234;2023-02-28T09:13:38;12.53;;;11.17;;
39554;SDS011;25231;48.746;9.234;2023-02-28T09:16:05;13.03;;;11.43;;
39554;SDS011;25231;48.746;9.234;2023-02-28T09:18:36;15.00;;;12.30;;
39554;SDS011;25231;48.746;9.234;2023-02-28T09:21:06;12.37;;;11.20;;
39554;SDS011;25231;48.746;9.234;2023-02-28T09:23:33;15.13;;;12.17;;
39554;SDS011;25231;48.746;9.234;2023-02-28T09:25:59;12.97;;;11.40;;
39554;SDS011;25231;48.746;9.234;2023-02-28T09:28:25;15.03;;;13.50;;
39554;SDS011;25231;48.746;9.234;2023-02-28T09:30:51;14.70;;;11.80;;
39554;SDS011;25231;48.746;9.234;2023-02-28T09:33:18;13.60;;;12.03;;
39554;SDS011;25231;48.746;9.234;2023-02-28T09:35:46;12.97;;;11.53;;
39554;SDS011;25231;48.746;9.234;2023-02-28T09:38:12;15.53;;;13.43;;
39554;SDS011;25231;48.746;9.234;2023-02-28T09:40:49;15.70;;;14.27;;
39554;SDS011;25231;48.746;9.234;2023-02-28T09:43:17;15.80;;;14.03;;
39554;SDS011;25231;48.746;9.234;2023-02-28T09:45:55;17.30;;;14.23;;
39554;SDS011;25231;48.746;9.234;2023-02-28T09:48:31;15.70;;;14.10;;
39554;SDS011;25231;48.746;9.234;2023-02-28T09:51:04;15.73;;;13.97;;
39554;SDS011;25231;48.746;9.234;2023-02-28T09:53:39;17.63;;;15.93;;
39554;SDS011;25231;48.746;9.234;2023-02-28T09:56:09;16.30;;;14.70;;
39554;SDS011;25231;48.746;9.234;2023-02-28T09:58:42;14.60;;;13.10;;
39554;SDS011;25231;48.746;9.234;2023-02-28T10:04:03;13.67;;;11.00;;
39554;SDS011;25231;48.746;9.234;2023-02-28T10:06:38;12.83;;;11.43;;
39554;SDS011;25231;48.746;9.234;2023-02-28T10:11:47;13.93;;;11.30;;
39554;SDS011;25231;48.746;9.234;2023-02-28T10:14:16;15.53;;;11.73;;
39554;SDS011;25231;48.746;9.234;2023-02-28T10:16:46;13.13;;;11.80;;
39554;SDS011;25231;48.746;9.234;2023-02-28T10:21:59;12.63;;;11.43;;
39554;SDS011;25231;48.746;9.234;2023-02-28T10:24:35;14.70;;;11.87;;
39554;SDS011;25231;48.746;9.234;2023-02-28T10:27:24;13.00;;;10.77;;
39554;SDS011;25231;48.746;9.234;2023-02-28T10:29:54;13.57;;;12.13;;
39554;SDS011;25231;48.746;9.234;2023-02-28T10:32:22;13.57;;;12.13;;
39554;SDS011;25231;48.746;9.234;2023-02-28T10:34:51;12.80;;;11.40;;
39554;SDS011;25231;48.746;9.234;2023-02-28T10:37:21;13.23;;;11.83;;
39554;SDS011;25231;48.746;9.234;2023-02-28T10:39:47;13.73;;;12.23;;
39554;SDS011;25231;48.746;9.234;2023-02-28T10:42:20;15.97;;;14.47;;
39554;SDS011;25231;48.746;9.234;2023-02-28T10:44:52;15.47;;;14.00;;
39554;SDS011;25231;48.746;9.234;2023-02-28T10:47:31;16.33;;;14.73;;
39554;SDS011;25231;48.746;9.234;2023-02-28T10:49:59;14.70;;;13.10;;
39554;SDS011;25231;48.746;9.234;2023-02-28T10:55:21;14.00;;;12.50;;
39554;SDS011;25231;48.746;9.234;2023-02-28T10:57:49;14.67;;;11.50;;
39554;SDS011;25231;48.746;9.234;2023-02-28T11:00:17;13.20;;;11.80;;
39554;SDS011;25231;48.746;9.234;2023-02-28T11:02:45;14.70;;;12.13;;
39554;SDS011;25231;48.746;9.234;2023-02-28T11:05:33;13.50;;;12.10;;
39554;SDS011;25231;48.746;9.234;2023-02-28T11:08:12;13.00;;;11.63;;
39554;SDS011;25231;48.746;9.234;2023-02-28T11:10:43;14.60;;;12.70;;
39554;SDS011;25231;48.746;9.234;2023-02-28T11:13:18;14.00;;;11.80;;
39554;SDS011;25231;48.746;9.234;2023-02-28T11:15:51;14.33;;;12.17;;
39554;SDS011;25231;48.746;9.234;2023-02-28T11:18:24;50.47;;;47.13;;
39554;SDS011;25231;48.746;9.234;2023-02-28T11:20:54;14.80;;;12.83;;
39554;SDS011;25231;48.746;9.234;2023-02-28T11:23:22;16.97;;;15.37;;
39554;SDS011;25231;48.746;9.234;2023-02-28T11:25:52;14.67;;;13.20;;
39554;SDS011;25231;48.746;9.234;2023-02-28T11:28:29;14.37;;;12.87;;
39554;SDS011;25231;48.746;9.234;2023-02-28T11:33:42;13.57;;;11.97;;
39554;SDS011;25231;48.746;9.234;2023-02-28T11:38:42;14.07;;;12.67;;
39554;SDS011;25231;48.746;9.234;2023-02-28T11:41:19;15.17;;;13.63;;
39554;SDS011;25231;48.746;9.234;2023-02-28T11:46:52;12.80;;;11.50;;
39554;SDS011;25231;48.746;9.234;2023-02-28T11:52:00;11.83;;;10.73;;
39554;SDS011;25231;48.746;9.234;2023-02-28T11:57:19;13.60;;;12.27;;
39554;SDS011;25231;48.746;9.234;2023-02-28T12:00:03;11.87;;;10.67;;
39554;SDS011;25231;48.746;9.234;2023-02-28T12:02:38;13.97;;;12.13;;
39554;SDS011;25231;48.746;9.234;2023-02-28T12:08:06;35.20;;;32.70;;
39554;SDS011;25231;48.746;9.234;2023-02-28T12:13:41;15.80;;;14.20;;
39554;SDS011;25231;48.746;9.234;2023-02-28T12:16:29;16.60;;;12.73;;
39554;SDS011;25231;48.746;9.234;2023-02-28T12:27:23;14.13;;;12.33;;
39554;SDS011;25231;48.746;9.234;2023-02-28T12:29:54;16.60;;;14.90;;
39554;SDS011;25231;48.746;9.234;2023-02-28T12:32:29;17.03;;;15.40;;
39554;SDS011;25231;48.746;9.234;2023-02-28T12:34:58;15.60;;;14.20;;
39554;SDS011;25231;48.746;9.234;2023-02-28T12:37:31;15.93;;;14.53;;
39554;SDS011;25231;48.746;9.234;2023-02-28T12:40:16;15.67;;;14.17;;
39554;SDS011;25231;48.746;9.234;2023-02-28T12:42:46;16.57;;;14.87;;
39554;SDS011;25231;48.746;9.234;2023-02-28T12:45:24;16.53;;;15.03;;
39554;SDS011;25231;48.746;9.234;2023-02-28T12:48:04;17.67;;;16.07;;
39554;SDS011;25231;48.746;9.234;2023-02-28T12:50:33;15.57;;;14.03;;
39554;SDS011;25231;48.746;9.234;2023-02-28T12:58:38;15.97;;;14.27;;
39554;SDS011;25231;48.746;9.234;2023-02-28T13:01:29;17.27;;;15.60;;
39554;SDS011;25231;48.746;9.234;2023-02-28T13:04:27;14.47;;;12.97;;
39554;SDS011;25231;48.746;9.234;2023-02-28T13:09:54;13.93;;;12.53;;
39554;SDS011;25231;48.746;9.234;2023-02-28T13:12:21;14.70;;;12.67;;
39554;SDS011;25231;48.746;9.234;2023-02-28T13:14:47;14.27;;;11.90;;
39554;SDS011;25231;48.746;9.234;2023-02-28T13:17:21;13.77;;;12.40;;
39554;SDS011;25231;48.746;9.234;2023-02-28T13:22:20;14.37;;;12.93;;
39554;SDS011;25231;48.746;9.234;2023-02-28T13:25:04;15.03;;;13.43;;
39554;SDS011;25231;48.746;9.234;2023-02-28T13:27:48;13.90;;;12.50;;
39554;SDS011;25231;48.746;9.234;2023-02-28T13:36:10;13.77;;;12.40;;
39554;SDS011;25231;48.746;9.234;2023-02-28T13:38:42;16.17;;;12.67;;
39554;SDS011;25231;48.746;9.234;2023-02-28T13:44:05;12.13;;;10.83;;
39554;SDS011;25231;48.746;9.234;2023-02-28T13:47:23;14.60;;;12.50;;
39554;SDS011;25231;48.746;9.234;2023-02-28T13:51:48;12.30;;;11.17;;
39554;SDS011;25231;48.746;9.234;2023-02-28T13:59:25;12.67;;;11.47;;
39554;SDS011;25231;48.746;9.234;2023-02-28T14:07:51;12.30;;;11.10;;
39554;SDS011;25231;48.746;9.234;2023-02-28T14:10:24;12.80;;;10.93;;
39554;SDS011;25231;48.746;9.234;2023-02-28T14:12:54;15.07;;;11.40;;
39554;SDS011;25231;48.746;9.234;2023-02-28T14:18:22;12.03;;;10.90;;
39554;SDS011;25231;48.746;9.234;2023-02-28T14:20:52;12.77;;;11.47;;
39554;SDS011;25231;48.746;9.234;2023-02-28T14:23:36;12.87;;;10.83;;
39554;SDS011;25231;48.746;9.234;2023-02-28T14:26:19;12.70;;;11.40;;
39554;SDS011;25231;48.746;9.234;2023-02-28T14:28:56;13.97;;;12.57;;
39554;SDS011;25231;48.746;9.234;2023-02-28T14:31:39;13.37;;;12.07;;
39554;SDS011;25231;48.746;9.234;2023-02-28T14:36:53;14.37;;;12.93;;
39554;SDS011;25231;48.746;9.234;2023-02-28T14:39:24;13.60;;;12.40;;
39554;SDS011;25231;48.746;9.234;2023-02-28T14:41:50;15.03;;;13.53;;
39554;SDS011;25231;48.746;9.234;2023-02-28T14:46:50;14.20;;;12.80;;
39554;SDS011;25231;48.746;9.234;2023-02-28T14:51:46;15.80;;;14.23;;
39554;SDS011;25231;48.746;9.234;2023-02-28T14:54:15;18.77;;;17.17;;
39554;SDS011;25231;48.746;9.234;2023-02-28T14:56:48;14.63;;;12.00;;
39554;SDS011;25231;48.746;9.234;2023-02-28T14:59:30;15.07;;;13.53;;
39554;SDS011;25231;48.746;9.234;2023-02-28T15:02:17;14.13;;;12.80;;
39554;SDS011;25231;48.746;9.234;2023-02-28T15:04:52;16.40;;;14.80;;
39554;SDS011;25231;48.746;9.234;2023-02-28T15:07:18;13.37;;;12.00;;
39554;SDS011;25231;48.746;9.234;2023-02-28T15:09:44;14.60;;;12.83;;
39554;SDS011;25231;48.746;9.234;2023-02-28T15:12:13;13.77;;;12.37;;
39554;SDS011;25231;48.746;9.234;2023-02-28T15:14:41;13.87;;;12.23;;
39554;SDS011;25231;48.746;9.234;2023-02-28T15:17:11;12.37;;;11.07;;
39554;SDS011;25231;48.746;9.234;2023-02-28T15:19:48;13.70;;;12.13;;
39554;SDS011;25231;48.746;9.234;2023-02-28T15:22:16;13.07;;;11.77;;
39554;SDS011;25231;48.746;9.234;2023-02-28T15:24:49;14.93;;;12.07;;
39554;SDS011;25231;48.746;9.234;2023-02-28T15:29:51;13.47;;;12.17;;
39554;SDS011;25231;48.746;9.234;2023-02-28T15:34:53;12.83;;;11.23;;
39554;SDS011;25231;48.746;9.234;2023-02-28T15:39:55;13.93;;;12.00;;
39554;SDS011;25231;48.746;9.234;2023-02-28T15:42:22;15.13;;;12.10;;
39554;SDS011;25231;48.746;9.234;2023-02-28T15:44:52;15.23;;;12.90;;
39554;SDS011;25231;48.746;9.234;2023-02-28T15:47:22;13.93;;;11.90;;
39554;SDS011;25231;48.746;9.234;2023-02-28T15:49:51;14.87;;;12.23;;
39554;SDS011;25231;48.746;9.234;2023-02-28T15:52:21;12.93;;;11.37;;
39554;SDS011;25231;48.746;9.234;2023-02-28T15:54:52;13.53;;;11.27;;
39554;SDS011;25231;48.746;9.234;2023-02-28T15:57:22;12.53;;;11.23;;
39554;SDS011;25231;48.746;9.234;2023-02-28T15:59:57;14.43;;;11.87;;
39554;SDS011;25231;48.746;9.234;2023-02-28T16:02:32;13.10;;;11.30;;
39554;SDS011;25231;48.746;9.234;2023-02-28T16:07:31;14.17;;;12.20;;
39554;SDS011;25231;48.746;9.234;2023-02-28T16:09:57;13.47;;;12.07;;
39554;SDS011;25231;48.746;9.234;2023-02-28T16:12:25;13.67;;;12.20;;
39554;SDS011;25231;48.746;9.234;2023-02-28T16:14:52;13.13;;;11.70;;
39554;SDS011;25231;48.746;9.234;2023-02-28T16:17:20;14.13;;;12.73;;
39554;SDS011;25231;48.746;9.234;2023-02-28T16:19:50;15.37;;;13.77;;
39554;SDS011;25231;48.746;9.234;2023-02-28T16:22:16;20.20;;;18.40;;
39554;SDS011;25231;48.746;9.234;2023-02-28T16:24:41;19.57;;;17.87;;
39554;SDS011;25231;48.746;9.234;2023-02-28T16:27:09;22.40;;;20.60;;
39554;SDS011;25231;48.746;9.234;2023-02-28T16:29:42;20.97;;;19.23;;
39554;SDS011;25231;48.746;9.234;2023-02-28T16:32:10;21.17;;;19.30;;
39554;SDS011;25231;48.746;9.234;2023-02-28T16:34:37;19.20;;;17.27;;
39554;SDS011;25231;48.746;9.234;2023-02-28T16:37:02;17.87;;;16.27;;
39554;SDS011;25231;48.746;9.234;2023-02-28T16:39:29;16.97;;;15.23;;
39554;SDS011;25231;48.746;9.234;2023-02-28T16:41:54;14.53;;;13.13;;
39554;SDS011;25231;48.746;9.234;2023-02-28T16:46:59;14.20;;;12.47;;
39554;SDS011;25231;48.746;9.234;2023-02-28T16:49:25;15.63;;;13.43;;
39554;SDS011;25231;48.746;9.234;2023-02-28T16:51:50;16.10;;;14.47;;